sensor_id;sensor_type;location;lat;lon;timestamp;pressure;altitude;pressure_sealevel;temperature;humidity
21902;BME280;11115;46.038;14.612;2023-05-23T00:00:52;98199.19;;;13.92;100.00
21902;BME280;11115;46.038;14.612;2023-05-23T00:03:32;98198.16;;;13.76;100.00
21902;BME280;11115;46.038;14.612;2023-05-23T00:06:05;98208.28;;;13.51;100.00
21902;BME280;11115;46.038;14.612;2023-05-23T00:08:35;98187.91;;;13.39;100.00
21902;BME280;11115;46.038;14.612;2023-05-23T00:11:05;98209.19;;;13.26;100.00
21902;BME280;11115;46.038;14.612;2023-05-23T00:13:40;98204.81;;;13.16;100.00
21902;BME280;11115;46.038;14.612;2023-05-23T00:16:19;98178.19;;;13.06;100.00
21902;BME280;11115;46.038;14.612;2023-05-23T00:18:49;98205.59;;;13.25;100.00
21902;BME280;11115;46.038;14.612;2023-05-23T00:21:20;98201.28;;;12.90;100.00
21902;BME280;11115;46.038;14.612;2023-05-23T00:23:52;98200.84;;;12.53;100.00
21902;BME280;11115;46.038;14.612;2023-05-23T00:26:22;98200.00;;;12.70;100.00
21902;BME280;11115;46.038;14.612;2023-05-23T00:29:00;98200.88;;;12.62;100.00
21902;BME280;11115;46.038;14.612;2023-05-23T00:31:28;98209.72;;;13.19;100.00
21902;BME280;11115;46.038;14.612;2023-05-23T00:34:02;98208.50;;;13.38;100.00
21902;BME280;11115;46.038;14.612;2023-05-23T00:36:35;98199.91;;;13.13;100.00
21902;BME280;11115;46.038;14.612;2023-05-23T00:39:10;98153.25;;;12.98;100.00
21902;BME280;11115;46.038;14.612;2023-05-23T00:41:56;98210.53;;;13.11;100.00
21902;BME280;11115;46.038;14.612;2023-05-23T00:44:31;98199.19;;;12.78;100.00
21902;BME280;11115;46.038;14.612;2023-05-23T00:47:06;98209.28;;;12.91;100.00
21902;BME280;11115;46.038;14.612;2023-05-23T00:49:36;98203.31;;;13.10;100.00
21902;BME280;11115;46.038;14.612;2023-05-23T00:52:11;98186.56;;;12.98;100.00
21902;BME280;11115;46.038;14.612;2023-05-23T00:54:48;98196.38;;;12.95;100.00
21902;BME280;11115;46.038;14.612;2023-05-23T00:57:34;98188.97;;;12.44;100.00
21902;BME280;11115;46.038;14.612;2023-05-23T01:00:14;98190.88;;;12.78;100.00
21902;BME280;11115;46.038;14.612;2023-05-23T01:02:48;98184.47;;;12.86;100.00
21902;BME280;11115;46.038;14.612;2023-05-23T01:05:21;98194.91;;;12.98;100.00
21902;BME280;11115;46.038;14.612;2023-05-23T01:08:06;98168.63;;;12.95;100.00
21902;BME280;11115;46.038;14.612;2023-05-23T01:10:40;98185.88;;;13.18;100.00
21902;BME280;11115;46.038;14.612;2023-05-23T01:13:55;98184.28;;;12.91;100.00
21902;BME280;11115;46.038;14.612;2023-05-23T01:16:58;98182.16;;;12.97;100.00
21902;BME280;11115;46.038;14.612;2023-05-23T01:20:01;98184.03;;;12.75;100.00
21902;BME280;11115;46.038;14.612;2023-05-23T01:29:03;98188.09;;;12.78;100.00
21902;BME280;11115;46.038;14.612;2023-05-23T01:31:43;98189.13;;;12.30;100.00
21902;BME280;11115;46.038;14.612;2023-05-23T01:34:16;98182.78;;;12.30;100.00
21902;BME280;11115;46.038;14.612;2023-05-23T01:36:55;98193.38;;;11.93;100.00
21902;BME280;11115;46.038;14.612;2023-05-23T01:39:29;98186.88;;;12.06;100.00
21902;BME280;11115;46.038;14.612;2023-05-23T01:41:59;98173.50;;;12.34;100.00
21902;BME280;11115;46.038;14.612;2023-05-23T01:44:45;98197.94;;;12.58;100.00
21902;BME280;11115;46.038;14.612;2023-05-23T01:47:31;98197.63;;;12.34;100.00
21902;BME280;11115;46.038;14.612;2023-05-23T01:50:08;98191.09;;;12.30;100.00
21902;BME280;11115;46.038;14.612;2023-05-23T01:52:47;98188.81;;;12.40;100.00
21902;BME280;11115;46.038;14.612;2023-05-23T01:55:31;98187.19;;;12.39;100.00
21902;BME280;11115;46.038;14.612;2023-05-23T01:58:03;98172.97;;;12.50;100.00
21902;BME280;11115;46.038;14.612;2023-05-23T02:00:44;98189.63;;;12.41;100.00
21902;BME280;11115;46.038;14.612;2023-05-23T02:03:23;98192.56;;;11.93;100.00
21902;BME280;11115;46.038;14.612;2023-05-23T02:06:04;98192.91;;;12.26;100.00
21902;BME280;11115;46.038;14.612;2023-05-23T02:08:42;98149.84;;;12.20;100.00
21902;BME280;11115;46.038;14.612;2023-05-23T02:11:17;98196.66;;;12.21;100.00
21902;BME280;11115;46.038;14.612;2023-05-23T02:13:52;98193.38;;;12.28;100.00
21902;BME280;11115;46.038;14.612;2023-05-23T02:16:40;98190.28;;;11.86;100.00
21902;BME280;11115;46.038;14.612;2023-05-23T02:19:16;98189.13;;;12.13;100.00
21902;BME280;11115;46.038;14.612;2023-05-23T02:21:53;98193.69;;;12.52;100.00
21902;BME280;11115;46.038;14.612;2023-05-23T02:24:28;98183.91;;;12.11;100.00
21902;BME280;11115;46.038;14.612;2023-05-23T02:27:13;98192.59;;;12.19;100.00
21902;BME280;11115;46.038;14.612;2023-05-23T02:29:45;98191.59;;;12.06;100.00
21902;BME280;11115;46.038;14.612;2023-05-23T02:32:19;98185.41;;;12.18;100.00
21902;BME280;11115;46.038;14.612;2023-05-23T02:34:55;98185.72;;;12.42;100.00
21902;BME280;11115;46.038;14.612;2023-05-23T02:37:25;98190.78;;;12.40;100.00
21902;BME280;11115;46.038;14.612;2023-05-23T02:39:56;98180.66;;;12.35;100.00
21902;BME280;11115;46.038;14.612;2023-05-23T02:42:39;98161.94;;;12.15;100.00
21902;BME280;11115;46.038;14.612;2023-05-23T02:45:10;98167.75;;;12.31;100.00
21902;BME280;11115;46.038;14.612;2023-05-23T02:47:40;98164.03;;;12.27;100.00
21902;BME280;11115;46.038;14.612;2023-05-23T02:50:13;98158.16;;;12.20;100.00
21902;BME280;11115;46.038;14.612;2023-05-23T02:52:52;98168.59;;;12.40;100.00
21902;BME280;11115;46.038;14.612;2023-05-23T02:55:28;98165.31;;;12.12;100.00
21902;BME280;11115;46.038;14.612;2023-05-23T02:58:02;98164.63;;;11.72;100.00
21902;BME280;11115;46.038;14.612;2023-05-23T03:00:32;98154.91;;;11.83;100.00
21902;BME280;11115;46.038;14.612;2023-05-23T03:03:04;98176.91;;;11.79;100.00
21902;BME280;11115;46.038;14.612;2023-05-23T03:05:39;98160.72;;;11.73;100.00
21902;BME280;11115;46.038;14.612;2023-05-23T03:08:10;98169.72;;;12.13;100.00
21902;BME280;11115;46.038;14.612;2023-05-23T03:10:47;98165.31;;;11.77;100.00
21902;BME280;11115;46.038;14.612;2023-05-23T03:13:22;98172.13;;;11.71;100.00
21902;BME280;11115;46.038;14.612;2023-05-23T03:15:54;98161.34;;;11.52;100.00
21902;BME280;11115;46.038;14.612;2023-05-23T03:18:36;98178.31;;;11.60;100.00
21902;BME280;11115;46.038;14.612;2023-05-23T03:21:10;98173.81;;;11.90;100.00
21902;BME280;11115;46.038;14.612;2023-05-23T03:23:44;98176.31;;;11.51;100.00
21902;BME280;11115;46.038;14.612;2023-05-23T03:26:24;98166.88;;;11.52;100.00
21902;BME280;11115;46.038;14.612;2023-05-23T03:29:06;98170.28;;;11.41;100.00
21902;BME280;11115;46.038;14.612;2023-05-23T03:31:39;98174.31;;;11.83;100.00
21902;BME280;11115;46.038;14.612;2023-05-23T03:34:16;98181.56;;;11.62;100.00
21902;BME280;11115;46.038;14.612;2023-05-23T03:37:00;98183.00;;;11.50;100.00
21902;BME280;11115;46.038;14.612;2023-05-23T03:39:31;98170.94;;;11.38;100.00
21902;BME280;11115;46.038;14.612;2023-05-23T03:42:04;98185.16;;;11.71;100.00
21902;BME280;11115;46.038;14.612;2023-05-23T03:44:32;98183.16;;;11.54;100.00
21902;BME280;11115;46.038;14.612;2023-05-23T03:47:06;98176.38;;;11.60;100.00
21902;BME280;11115;46.038;14.612;2023-05-23T03:49:49;98171.63;;;11.61;100.00
21902;BME280;11115;46.038;14.612;2023-05-23T03:52:21;98172.28;;;11.58;100.00
21902;BME280;11115;46.038;14.612;2023-05-23T03:55:10;98176.00;;;11.44;100.00
21902;BME280;11115;46.038;14.612;2023-05-23T03:57:45;98166.75;;;11.66;100.00
21902;BME280;11115;46.038;14.612;2023-05-23T04:00:13;98170.97;;;11.72;100.00
21902;BME280;11115;46.038;14.612;2023-05-23T04:02:49;98169.06;;;11.90;100.00
21902;BME280;11115;46.038;14.612;2023-05-23T04:05:26;98171.03;;;12.07;100.00
21902;BME280;11115;46.038;14.612;2023-05-23T04:08:00;98119.03;;;11.87;100.00
21902;BME280;11115;46.038;14.612;2023-05-23T04:10:34;98181.16;;;12.03;100.00
21902;BME280;11115;46.038;14.612;2023-05-23T04:13:11;98182.63;;;11.83;100.00
21902;BME280;11115;46.038;14.612;2023-05-23T04:16:04;98183.03;;;11.68;100.00
21902;BME280;11115;46.038;14.612;2023-05-23T04:18:37;98183.66;;;11.56;100.00
21902;BME280;11115;46.038;14.612;2023-05-23T04:21:22;98193.13;;;11.55;100.00
21902;BME280;11115;46.038;14.612;2023-05-23T04:24:14;98190.06;;;11.74;100.00
21902;BME280;11115;46.038;14.612;2023-05-23T04:26:45;98193.22;;;11.81;100.00
21902;BME280;11115;46.038;14.612;2023-05-23T04:29:15;98186.69;;;12.11;100.00
21902;BME280;11115;46.038;14.612;2023-05-23T04:31:55;98145.59;;;12.13;100.00
21902;BME280;11115;46.038;14.612;2023-05-23T04:34:26;98188.47;;;12.51;100.00
21902;BME280;11115;46.038;14.612;2023-05-23T04:37:05;98183.25;;;12.49;100.00
21902;BME280;11115;46.038;14.612;2023-05-23T04:39:41;98182.44;;;12.40;100.00
21902;BME280;11115;46.038;14.612;2023-05-23T04:42:31;98191.91;;;12.39;100.00
21902;BME280;11115;46.038;14.612;2023-05-23T04:45:20;98187.94;;;12.74;100.00
21902;BME280;11115;46.038;14.612;2023-05-23T04:48:21;98189.34;;;12.98;100.00
21902;BME280;11115;46.038;14.612;2023-05-23T04:51:07;98182.31;;;13.00;100.00
21902;BME280;11115;46.038;14.612;2023-05-23T04:54:09;98179.00;;;13.07;100.00
21902;BME280;11115;46.038;14.612;2023-05-23T04:56:57;98181.16;;;13.01;100.00
21902;BME280;11115;46.038;14.612;2023-05-23T04:59:45;98189.34;;;12.98;100.00
21902;BME280;11115;46.038;14.612;2023-05-23T05:02:18;98182.31;;;13.00;100.00
21902;BME280;11115;46.038;14.612;2023-05-23T05:04:49;98192.25;;;13.19;100.00
21902;BME280;11115;46.038;14.612;2023-05-23T05:07:24;98197.41;;;13.29;100.00
21902;BME280;11115;46.038;14.612;2023-05-23T05:10:02;98185.72;;;13.44;100.00
21902;BME280;11115;46.038;14.612;2023-05-23T05:12:36;98185.94;;;13.39;100.00
21902;BME280;11115;46.038;14.612;2023-05-23T05:15:10;98193.22;;;13.52;100.00
21902;BME280;11115;46.038;14.612;2023-05-23T05:17:40;98190.25;;;13.57;100.00
21902;BME280;11115;46.038;14.612;2023-05-23T05:20:20;98170.25;;;13.64;100.00
21902;BME280;11115;46.038;14.612;2023-05-23T05:22:56;98183.09;;;13.77;100.00
21902;BME280;11115;46.038;14.612;2023-05-23T05:25:30;98180.59;;;13.84;100.00
21902;BME280;11115;46.038;14.612;2023-05-23T05:28:02;98191.13;;;14.00;100.00
21902;BME280;11115;46.038;14.612;2023-05-23T05:30:50;98179.13;;;14.08;100.00
21902;BME280;11115;46.038;14.612;2023-05-23T05:33:36;98174.50;;;14.12;100.00
21902;BME280;11115;46.038;14.612;2023-05-23T05:36:15;98183.91;;;14.19;100.00
21902;BME280;11115;46.038;14.612;2023-05-23T05:38:47;98190.84;;;14.34;100.00
21902;BME280;11115;46.038;14.612;2023-05-23T05:41:33;98182.59;;;14.46;100.00
21902;BME280;11115;46.038;14.612;2023-05-23T05:44:15;98188.41;;;14.53;100.00
21902;BME280;11115;46.038;14.612;2023-05-23T05:47:00;98181.50;;;14.72;100.00
21902;BME280;11115;46.038;14.612;2023-05-23T05:49:31;98179.56;;;14.84;100.00
21902;BME280;11115;46.038;14.612;2023-05-23T05:52:07;98178.66;;;14.93;100.00
21902;BME280;11115;46.038;14.612;2023-05-23T05:54:36;98160.44;;;14.95;100.00
21902;BME280;11115;46.038;14.612;2023-05-23T05:57:08;98154.63;;;15.00;100.00
21902;BME280;11115;46.038;14.612;2023-05-23T05:59:43;98159.44;;;15.12;100.00
21902;BME280;11115;46.038;14.612;2023-05-23T06:02:17;98172.44;;;15.32;100.00
21902;BME280;11115;46.038;14.612;2023-05-23T06:05:01;98171.06;;;15.51;100.00
21902;BME280;11115;46.038;14.612;2023-05-23T06:07:34;98157.97;;;15.63;100.00
21902;BME280;11115;46.038;14.612;2023-05-23T06:10:12;98110.78;;;15.46;100.00
21902;BME280;11115;46.038;14.612;2023-05-23T06:12:54;98160.72;;;15.88;100.00
21902;BME280;11115;46.038;14.612;2023-05-23T06:15:34;98146.72;;;16.00;100.00
21902;BME280;11115;46.038;14.612;2023-05-23T06:18:12;98133.13;;;15.98;100.00
21902;BME280;11115;46.038;14.612;2023-05-23T06:20:56;98150.84;;;16.18;100.00
21902;BME280;11115;46.038;14.612;2023-05-23T06:23:41;98146.66;;;16.24;100.00
21902;BME280;11115;46.038;14.612;2023-05-23T06:26:18;98148.22;;;16.37;100.00
21902;BME280;11115;46.038;14.612;2023-05-23T06:28:46;98149.97;;;16.58;100.00
21902;BME280;11115;46.038;14.612;2023-05-23T06:31:18;98096.22;;;16.45;100.00
21902;BME280;11115;46.038;14.612;2023-05-23T06:33:49;98127.63;;;16.70;100.00
21902;BME280;11115;46.038;14.612;2023-05-23T06:36:18;98133.97;;;16.98;100.00
21902;BME280;11115;46.038;14.612;2023-05-23T06:38:49;98145.25;;;17.02;100.00
21902;BME280;11115;46.038;14.612;2023-05-23T06:41:22;98147.41;;;17.09;100.00
21902;BME280;11115;46.038;14.612;2023-05-23T06:43:56;98144.44;;;17.17;100.00
21902;BME280;11115;46.038;14.612;2023-05-23T06:46:31;98092.59;;;17.04;100.00
21902;BME280;11115;46.038;14.612;2023-05-23T06:49:03;98142.69;;;17.44;100.00
21902;BME280;11115;46.038;14.612;2023-05-23T06:51:58;98135.50;;;17.43;100.00
21902;BME280;11115;46.038;14.612;2023-05-23T06:54:30;98133.38;;;17.72;100.00
21902;BME280;11115;46.038;14.612;2023-05-23T06:57:08;98121.81;;;17.73;100.00
21902;BME280;11115;46.038;14.612;2023-05-23T06:59:42;98129.31;;;17.85;100.00
21902;BME280;11115;46.038;14.612;2023-05-23T07:02:16;98126.44;;;18.01;100.00
21902;BME280;11115;46.038;14.612;2023-05-23T07:04:55;98124.69;;;18.12;100.00
21902;BME280;11115;46.038;14.612;2023-05-23T07:07:57;98120.63;;;18.09;100.00
21902;BME280;11115;46.038;14.612;2023-05-23T07:10:32;98133.00;;;18.08;100.00
21902;BME280;11115;46.038;14.612;2023-05-23T07:13:17;98126.59;;;18.08;100.00
21902;BME280;11115;46.038;14.612;2023-05-23T07:15:52;98127.41;;;18.28;100.00
21902;BME280;11115;46.038;14.612;2023-05-23T07:18:27;98119.75;;;18.44;100.00
21902;BME280;11115;46.038;14.612;2023-05-23T07:20:58;98118.19;;;18.46;100.00
21902;BME280;11115;46.038;14.612;2023-05-23T07:23:43;98108.84;;;18.58;100.00
21902;BME280;11115;46.038;14.612;2023-05-23T07:26:18;98115.31;;;18.62;100.00
21902;BME280;11115;46.038;14.612;2023-05-23T07:29:01;98104.72;;;18.71;100.00
21902;BME280;11115;46.038;14.612;2023-05-23T07:31:35;98109.53;;;18.94;100.00
21902;BME280;11115;46.038;14.612;2023-05-23T07:34:12;98100.38;;;18.97;100.00
21902;BME280;11115;46.038;14.612;2023-05-23T07:36:55;98087.78;;;18.87;100.00
21902;BME280;11115;46.038;14.612;2023-05-23T07:39:34;98102.78;;;18.98;100.00
21902;BME280;11115;46.038;14.612;2023-05-23T07:42:07;98100.31;;;19.16;100.00
21902;BME280;11115;46.038;14.612;2023-05-23T07:44:42;98099.13;;;19.17;100.00
21902;BME280;11115;46.038;14.612;2023-05-23T07:47:13;98098.22;;;19.36;100.00
21902;BME280;11115;46.038;14.612;2023-05-23T07:49:44;98094.66;;;19.39;100.00
21902;BME280;11115;46.038;14.612;2023-05-23T07:52:15;98094.47;;;19.51;100.00
21902;BME280;11115;46.038;14.612;2023-05-23T07:54:51;98093.81;;;19.61;100.00
21902;BME280;11115;46.038;14.612;2023-05-23T07:57:27;98092.91;;;19.80;100.00
21902;BME280;11115;46.038;14.612;2023-05-23T07:59:58;98088.53;;;20.13;100.00
21902;BME280;11115;46.038;14.612;2023-05-23T08:02:48;98074.94;;;20.18;100.00
21902;BME280;11115;46.038;14.612;2023-05-23T08:05:26;98079.25;;;20.09;100.00
21902;BME280;11115;46.038;14.612;2023-05-23T08:08:00;98082.59;;;20.21;100.00
21902;BME280;11115;46.038;14.612;2023-05-23T08:10:37;98074.09;;;20.44;100.00
21902;BME280;11115;46.038;14.612;2023-05-23T08:13:20;98053.19;;;20.42;100.00
21902;BME280;11115;46.038;14.612;2023-05-23T08:16:12;98068.59;;;20.55;100.00
21902;BME280;11115;46.038;14.612;2023-05-23T08:18:49;98077.94;;;20.66;100.00
21902;BME280;11115;46.038;14.612;2023-05-23T08:21:34;98068.41;;;20.78;100.00
21902;BME280;11115;46.038;14.612;2023-05-23T08:24:10;98066.38;;;20.75;100.00
21902;BME280;11115;46.038;14.612;2023-05-23T08:26:49;98056.50;;;20.51;100.00
21902;BME280;11115;46.038;14.612;2023-05-23T08:29:25;98064.19;;;20.57;100.00
21902;BME280;11115;46.038;14.612;2023-05-23T08:32:01;98061.53;;;20.72;100.00
21902;BME280;11115;46.038;14.612;2023-05-23T08:34:39;98067.19;;;21.19;100.00
21902;BME280;11115;46.038;14.612;2023-05-23T08:37:17;98052.03;;;21.28;100.00
21902;BME280;11115;46.038;14.612;2023-05-23T08:39:55;98062.25;;;21.54;100.00
21902;BME280;11115;46.038;14.612;2023-05-23T08:42:50;98056.88;;;21.31;100.00
21902;BME280;11115;46.038;14.612;2023-05-23T08:45:37;98060.19;;;21.43;100.00
21902;BME280;11115;46.038;14.612;2023-05-23T08:48:07;98062.19;;;21.43;100.00
21902;BME280;11115;46.038;14.612;2023-05-23T08:50:53;98056.22;;;21.55;100.00
21902;BME280;11115;46.038;14.612;2023-05-23T08:53:40;98055.94;;;21.74;100.00
21902;BME280;11115;46.038;14.612;2023-05-23T08:56:14;98052.47;;;21.99;100.00
21902;BME280;11115;46.038;14.612;2023-05-23T08:58:57;98051.34;;;22.14;100.00
21902;BME280;11115;46.038;14.612;2023-05-23T09:01:31;98014.31;;;22.12;100.00
21902;BME280;11115;46.038;14.612;2023-05-23T09:04:10;98050.19;;;22.33;100.00
21902;BME280;11115;46.038;14.612;2023-05-23T09:06:50;98040.59;;;22.45;100.00
21902;BME280;11115;46.038;14.612;2023-05-23T09:09:24;98042.25;;;22.70;100.00
21902;BME280;11115;46.038;14.612;2023-05-23T09:11:54;98041.84;;;22.65;100.00
21902;BME280;11115;46.038;14.612;2023-05-23T09:14:31;98040.63;;;22.73;100.00
21902;BME280;11115;46.038;14.612;2023-05-23T09:17:07;98028.94;;;22.60;100.00
21902;BME280;11115;46.038;14.612;2023-05-23T09:19:50;98022.97;;;22.83;100.00
21902;BME280;11115;46.038;14.612;2023-05-23T09:22:47;98022.16;;;22.93;100.00
21902;BME280;11115;46.038;14.612;2023-05-23T09:25:22;98024.97;;;22.76;100.00
21902;BME280;11115;46.038;14.612;2023-05-23T09:27:54;98026.16;;;22.78;100.00
21902;BME280;11115;46.038;14.612;2023-05-23T09:30:33;98020.16;;;22.83;100.00
21902;BME280;11115;46.038;14.612;2023-05-23T09:33:02;98008.47;;;22.85;100.00
21902;BME280;11115;46.038;14.612;2023-05-23T09:35:34;98013.72;;;22.83;100.00
21902;BME280;11115;46.038;14.612;2023-05-23T09:38:18;98004.06;;;22.98;100.00
21902;BME280;11115;46.038;14.612;2023-05-23T09:41:02;98005.66;;;22.99;100.00
21902;BME280;11115;46.038;14.612;2023-05-23T09:43:53;98012.47;;;23.37;100.00
21902;BME280;11115;46.038;14.612;2023-05-23T09:46:27;98015.69;;;23.39;100.00
21902;BME280;11115;46.038;14.612;2023-05-23T09:48:56;98004.84;;;23.34;100.00
21902;BME280;11115;46.038;14.612;2023-05-23T09:51:28;97997.16;;;23.31;100.00
21902;BME280;11115;46.038;14.612;2023-05-23T09:54:09;98003.06;;;23.90;100.00
21902;BME280;11115;46.038;14.612;2023-05-23T09:56:40;97982.94;;;23.81;100.00
21902;BME280;11115;46.038;14.612;2023-05-23T09:59:20;97991.00;;;23.93;100.00
21902;BME280;11115;46.038;14.612;2023-05-23T10:02:10;97984.94;;;23.91;100.00
21902;BME280;11115;46.038;14.612;2023-05-23T10:04:42;97976.03;;;23.96;100.00
21902;BME280;11115;46.038;14.612;2023-05-23T10:07:22;97976.25;;;24.37;100.00
21902;BME280;11115;46.038;14.612;2023-05-23T10:09:58;97976.97;;;24.52;100.00
21902;BME280;11115;46.038;14.612;2023-05-23T10:12:54;97945.44;;;24.57;100.00
21902;BME280;11115;46.038;14.612;2023-05-23T10:15:38;97972.38;;;24.72;100.00
21902;BME280;11115;46.038;14.612;2023-05-23T10:18:17;97973.75;;;25.05;100.00
21902;BME280;11115;46.038;14.612;2023-05-23T10:20:53;97967.28;;;25.05;100.00
21902;BME280;11115;46.038;14.612;2023-05-23T10:23:31;97965.56;;;25.18;100.00
21902;BME280;11115;46.038;14.612;2023-05-23T10:26:03;97971.81;;;25.40;100.00
21902;BME280;11115;46.038;14.612;2023-05-23T10:28:34;97966.09;;;25.43;100.00
21902;BME280;11115;46.038;14.612;2023-05-23T10:31:22;97968.50;;;25.49;100.00
21902;BME280;11115;46.038;14.612;2023-05-23T10:37:06;97955.28;;;25.73;100.00
21902;BME280;11115;46.038;14.612;2023-05-23T10:39:54;97964.09;;;26.12;100.00
21902;BME280;11115;46.038;14.612;2023-05-23T10:42:44;97955.78;;;25.98;100.00
21902;BME280;11115;46.038;14.612;2023-05-23T10:45:23;97952.94;;;25.98;100.00
21902;BME280;11115;46.038;14.612;2023-05-23T10:47:58;97940.44;;;25.95;100.00
21902;BME280;11115;46.038;14.612;2023-05-23T10:50:34;97945.19;;;26.02;100.00
21902;BME280;11115;46.038;14.612;2023-05-23T10:53:08;97938.34;;;25.99;100.00
21902;BME280;11115;46.038;14.612;2023-05-23T10:55:40;97924.34;;;25.89;100.00
21902;BME280;11115;46.038;14.612;2023-05-23T10:58:28;97938.34;;;26.30;100.00
21902;BME280;11115;46.038;14.612;2023-05-23T11:01:01;97935.44;;;26.07;100.00
21902;BME280;11115;46.038;14.612;2023-05-23T11:03:49;97922.72;;;26.49;100.00
21902;BME280;11115;46.038;14.612;2023-05-23T11:06:37;97927.31;;;26.66;100.00
21902;BME280;11115;46.038;14.612;2023-05-23T11:09:18;97925.41;;;26.29;100.00
21902;BME280;11115;46.038;14.612;2023-05-23T11:11:50;97924.22;;;26.26;100.00
21902;BME280;11115;46.038;14.612;2023-05-23T11:14:52;97921.03;;;26.24;100.00
21902;BME280;11115;46.038;14.612;2023-05-23T11:17:32;97914.22;;;26.72;100.00
21902;BME280;11115;46.038;14.612;2023-05-23T11:20:19;97909.19;;;26.83;100.00
21902;BME280;11115;46.038;14.612;2023-05-23T11:23:10;97905.63;;;26.99;100.00
21902;BME280;11115;46.038;14.612;2023-05-23T11:25:51;97902.44;;;26.97;100.00
21902;BME280;11115;46.038;14.612;2023-05-23T11:28:54;97908.88;;;27.25;100.00
21902;BME280;11115;46.038;14.612;2023-05-23T11:31:27;97897.97;;;27.23;100.00
21902;BME280;11115;46.038;14.612;2023-05-23T11:34:08;97902.19;;;27.35;100.00
21902;BME280;11115;46.038;14.612;2023-05-23T11:36:41;97889.81;;;27.25;100.00
21902;BME280;11115;46.038;14.612;2023-05-23T11:39:09;97898.03;;;27.63;100.00
21902;BME280;11115;46.038;14.612;2023-05-23T11:41:41;97879.63;;;27.87;100.00
21902;BME280;11115;46.038;14.612;2023-05-23T11:44:12;97876.88;;;27.84;100.00
21902;BME280;11115;46.038;14.612;2023-05-23T11:46:58;97871.69;;;27.98;100.00
21902;BME280;11115;46.038;14.612;2023-05-23T11:49:32;97876.13;;;27.99;100.00
21902;BME280;11115;46.038;14.612;2023-05-23T11:52:04;97867.25;;;27.97;100.00
21902;BME280;11115;46.038;14.612;2023-05-23T11:54:40;97857.75;;;28.04;100.00
21902;BME280;11115;46.038;14.612;2023-05-23T11:57:25;97849.78;;;27.95;100.00
21902;BME280;11115;46.038;14.612;2023-05-23T12:00:01;97858.81;;;28.46;100.00
21902;BME280;11115;46.038;14.612;2023-05-23T12:02:44;97846.03;;;28.18;85.31
21902;BME280;11115;46.038;14.612;2023-05-23T12:05:19;97856.50;;;28.05;100.00
21902;BME280;11115;46.038;14.612;2023-05-23T12:07:58;97856.69;;;27.58;86.65
21902;BME280;11115;46.038;14.612;2023-05-23T12:10:35;97858.41;;;27.92;97.32
21902;BME280;11115;46.038;14.612;2023-05-23T12:13:09;97850.69;;;28.28;100.00
21902;BME280;11115;46.038;14.612;2023-05-23T12:15:47;97843.16;;;28.54;100.00
21902;BME280;11115;46.038;14.612;2023-05-23T12:18:32;97843.59;;;28.69;100.00
21902;BME280;11115;46.038;14.612;2023-05-23T12:21:05;97833.44;;;28.68;100.00
21902;BME280;11115;46.038;14.612;2023-05-23T12:23:49;97834.44;;;28.61;88.44
21902;BME280;11115;46.038;14.612;2023-05-23T12:26:47;97836.69;;;28.37;100.00
21902;BME280;11115;46.038;14.612;2023-05-23T12:29:37;97834.34;;;28.65;100.00
21902;BME280;11115;46.038;14.612;2023-05-23T12:32:08;97809.53;;;28.65;100.00
21902;BME280;11115;46.038;14.612;2023-05-23T12:34:44;97824.41;;;28.57;100.00
21902;BME280;11115;46.038;14.612;2023-05-23T12:37:20;97812.56;;;28.75;100.00
21902;BME280;11115;46.038;14.612;2023-05-23T12:39:54;97811.22;;;28.95;100.00
21902;BME280;11115;46.038;14.612;2023-05-23T12:42:25;97805.34;;;28.86;98.99
21902;BME280;11115;46.038;14.612;2023-05-23T12:44:58;97796.28;;;28.75;83.86
21902;BME280;11115;46.038;14.612;2023-05-23T12:47:42;97805.88;;;28.81;94.56
21902;BME280;11115;46.038;14.612;2023-05-23T12:50:14;97807.56;;;28.79;70.84
21902;BME280;11115;46.038;14.612;2023-05-23T12:52:46;97813.72;;;28.77;55.55
21902;BME280;11115;46.038;14.612;2023-05-23T12:55:20;97797.72;;;28.67;57.23
21902;BME280;11115;46.038;14.612;2023-05-23T12:57:48;97800.00;;;28.88;60.29
21902;BME280;11115;46.038;14.612;2023-05-23T13:00:20;97815.22;;;28.98;49.09
21902;BME280;11115;46.038;14.612;2023-05-23T13:03:05;97815.09;;;28.85;50.63
21902;BME280;11115;46.038;14.612;2023-05-23T13:05:37;97815.22;;;28.65;48.78
21902;BME280;11115;46.038;14.612;2023-05-23T13:08:06;97809.44;;;28.69;54.96
21902;BME280;11115;46.038;14.612;2023-05-23T13:10:41;97810.22;;;29.02;50.57
21902;BME280;11115;46.038;14.612;2023-05-23T13:13:25;97807.72;;;29.33;52.10
21902;BME280;11115;46.038;14.612;2023-05-23T13:15:57;97820.78;;;29.30;46.93
21902;BME280;11115;46.038;14.612;2023-05-23T13:18:30;97813.34;;;28.91;47.69
21902;BME280;11115;46.038;14.612;2023-05-23T13:20:59;97814.22;;;29.34;62.41
21902;BME280;11115;46.038;14.612;2023-05-23T13:23:33;97814.03;;;29.12;85.17
21902;BME280;11115;46.038;14.612;2023-05-23T13:26:12;97804.59;;;29.15;100.00
21902;BME280;11115;46.038;14.612;2023-05-23T13:28:43;97818.91;;;29.11;100.00
21902;BME280;11115;46.038;14.612;2023-05-23T13:31:19;97810.56;;;29.33;66.22
21902;BME280;11115;46.038;14.612;2023-05-23T13:33:51;97799.78;;;29.12;68.70
21902;BME280;11115;46.038;14.612;2023-05-23T13:36:19;97787.31;;;28.77;64.34
21902;BME280;11115;46.038;14.612;2023-05-23T13:39:06;97794.84;;;28.83;74.71
21902;BME280;11115;46.038;14.612;2023-05-23T13:41:38;97800.38;;;28.74;84.24
21902;BME280;11115;46.038;14.612;2023-05-23T13:44:20;97803.41;;;28.51;78.60